MSC Melatilde — 3FYE4 — position and weather

sailwx.info

Track history (hours):
 
Tides and Currents Weather Stations Pressure Air Temp Water Temp Dewpoint Dewpoint Depression Visibility Wind Speed Wind Dir Waves Ship Positions

MSC Melatilde

Last reported at 2017-Nov-16 07:45 UTC. Time now 2017-Nov-21 23:06 UTC.
Position N 01°14' E 103°59'.

Length 365 m; draft 12.9 m.

Type: Ship (hazmat cat A). MMSI: 357240000.

Date/timePositionNaut miles runAvg speedWind from/ knotsBaromVisibWave heightAir tempDewpointWater temp
2017-Nov-16 07:45N 01°14' E 103°59'414.8
2017-Nov-16 07:30N 01°13' E 103°55'713.0
2017-Nov-16 07:00N 01°12' E 103°49'4 8.7
2017-Nov-16 06:30N 01°15' E 103°46'2 2.7
2017-Nov-16 05:57N 01°17' E 103°45'0 0.1
2017-Nov-16 05:27N 01°17' E 103°45'0 0.0
2017-Nov-16 04:59N 01°17' E 103°45'0 0.0
2017-Nov-16 04:29N 01°17' E 103°45'0 0.0
2017-Nov-16 03:59N 01°17' E 103°45'0 0.0
2017-Nov-16 03:29N 01°17' E 103°45'0 0.0
2017-Nov-16 03:00N 01°17' E 103°45'0 0.0
2017-Nov-16 02:28N 01°17' E 103°45'0 0.0
2017-Nov-16 02:00N 01°17' E 103°45'0 0.1
2017-Nov-16 01:30N 01°17' E 103°45'0 0.0
2017-Nov-16 00:59N 01°17' E 103°45'0 0.0
2017-Nov-16 00:29N 01°17' E 103°45'0 0.1
2017-Nov-15 23:59N 01°17' E 103°45'0 0.0
2017-Nov-15 23:30N 01°17' E 103°45'0 0.0
2017-Nov-15 23:00N 01°17' E 103°45'0 0.0
2017-Nov-15 22:30N 01°17' E 103°45'0 0.0
2017-Nov-15 21:58N 01°17' E 103°45'0 0.0
2017-Nov-15 21:28N 01°17' E 103°45'0 0.0
2017-Nov-15 20:57N 01°17' E 103°45'0 0.0
2017-Nov-15 20:29N 01°17' E 103°45'0 0.0
2017-Nov-15 19:58N 01°17' E 103°45'0 0.0
2017-Nov-15 19:29N 01°17' E 103°45'0 0.0
2017-Nov-15 18:59N 01°17' E 103°45'0 0.0
2017-Nov-15 18:25N 01°17' E 103°45'0 0.0
2017-Nov-15 17:58N 01°17' E 103°45'0 0.0
2017-Nov-15 17:28N 01°17' E 103°45'0 0.0
2017-Nov-15 16:59N 01°17' E 103°45'0 0.0
2017-Nov-15 16:25N 01°17' E 103°45'0 0.0
2017-Nov-15 15:58N 01°17' E 103°45'0 0.1
2017-Nov-15 15:28N 01°17' E 103°45'0 0.1
2017-Nov-15 14:58N 01°17' E 103°45'0 0.0
2017-Nov-15 14:27N 01°17' E 103°45'0 0.0
2017-Nov-15 13:57N 01°17' E 103°45'0 0.0
2017-Nov-15 13:30N 01°17' E 103°45'0 0.0
2017-Nov-15 12:58N 01°17' E 103°45'0 0.0
2017-Nov-15 12:25N 01°17' E 103°45'0 0.0
2017-Nov-15 11:59N 01°17' E 103°45'0 0.0
2017-Nov-15 11:28N 01°17' E 103°45'0 0.0
2017-Nov-15 10:55N 01°17' E 103°45'0 0.0
2017-Nov-15 10:28N 01°17' E 103°45'0 0.0
2017-Nov-15 09:57N 01°17' E 103°45'0 0.0
2017-Nov-15 09:30N 01°17' E 103°45'0 0.0
2017-Nov-15 08:56N 01°17' E 103°45'0 0.0
2017-Nov-15 08:28N 01°17' E 103°45'0 0.0
2017-Nov-15 07:56N 01°17' E 103°45'0 0.2
2017-Nov-15 07:30N 01°17' E 103°45'2 3.4
2017-Nov-15 07:00N 01°15' E 103°46'713.1
2017-Nov-15 06:30N 01°12' E 103°40'5 9.1
2017-Nov-15 06:00N 01°12' E 103°35'3 6.6
2017-Nov-15 05:30N 01°11' E 103°32'4 7.7
2017-Nov-15 05:00N 01°11' E 103°28'3 6.6
2017-Nov-15 04:30N 01°12' E 103°25'4 7.0
2017-Nov-15 03:59N 01°14' E 103°22'4 7.2
2017-Nov-15 03:27N 01°16' E 103°19'  
Track history (hours):
 
Tides and Currents Weather Stations Pressure Air Temp Water Temp Dewpoint Dewpoint Depression Visibility Wind Speed Wind Dir Waves Ship Positions

MSC Melatilde

Last reported at 2017-Nov-16 07:45 UTC. Time now 2017-Nov-21 23:06 UTC.
Position N 01°14' E 103°59'.

Length 365 m; draft 12.9 m.

Type: Ship (hazmat cat A). MMSI: 357240000.

Date/timePositionNaut miles runAvg speedWind from/ knotsBaromVisibWave heightAir tempDewpointWater temp
2017-Nov-16 07:45N 01°14' E 103°59'414.8
2017-Nov-16 07:30N 01°13' E 103°55'713.0
2017-Nov-16 07:00N 01°12' E 103°49'4 8.7
2017-Nov-16 06:30N 01°15' E 103°46'2 2.7
2017-Nov-16 05:57N 01°17' E 103°45'0 0.1
2017-Nov-16 05:27N 01°17' E 103°45'0 0.0
2017-Nov-16 04:59N 01°17' E 103°45'0 0.0
2017-Nov-16 04:29N 01°17' E 103°45'0 0.0
2017-Nov-16 03:59N 01°17' E 103°45'0 0.0
2017-Nov-16 03:29N 01°17' E 103°45'0 0.0
2017-Nov-16 03:00N 01°17' E 103°45'0 0.0
2017-Nov-16 02:28N 01°17' E 103°45'0 0.0
2017-Nov-16 02:00N 01°17' E 103°45'0 0.1
2017-Nov-16 01:30N 01°17' E 103°45'0 0.0
2017-Nov-16 00:59N 01°17' E 103°45'0 0.0
2017-Nov-16 00:29N 01°17' E 103°45'0 0.1
2017-Nov-15 23:59N 01°17' E 103°45'0 0.0
2017-Nov-15 23:30N 01°17' E 103°45'0 0.0
2017-Nov-15 23:00N 01°17' E 103°45'0 0.0
2017-Nov-15 22:30N 01°17' E 103°45'0 0.0
2017-Nov-15 21:58N 01°17' E 103°45'0 0.0
2017-Nov-15 21:28N 01°17' E 103°45'0 0.0
2017-Nov-15 20:57N 01°17' E 103°45'0 0.0
2017-Nov-15 20:29N 01°17' E 103°45'0 0.0
2017-Nov-15 19:58N 01°17' E 103°45'0 0.0
2017-Nov-15 19:29N 01°17' E 103°45'0 0.0
2017-Nov-15 18:59N 01°17' E 103°45'0 0.0
2017-Nov-15 18:25N 01°17' E 103°45'0 0.0
2017-Nov-15 17:58N 01°17' E 103°45'0 0.0
2017-Nov-15 17:28N 01°17' E 103°45'0 0.0
2017-Nov-15 16:59N 01°17' E 103°45'0 0.0
2017-Nov-15 16:25N 01°17' E 103°45'0 0.0
2017-Nov-15 15:58N 01°17' E 103°45'0 0.1
2017-Nov-15 15:28N 01°17' E 103°45'0 0.1
2017-Nov-15 14:58N 01°17' E 103°45'0 0.0
2017-Nov-15 14:27N 01°17' E 103°45'0 0.0
2017-Nov-15 13:57N 01°17' E 103°45'0 0.0
2017-Nov-15 13:30N 01°17' E 103°45'0 0.0
2017-Nov-15 12:58N 01°17' E 103°45'0 0.0
2017-Nov-15 12:25N 01°17' E 103°45'0 0.0
2017-Nov-15 11:59N 01°17' E 103°45'0 0.0
2017-Nov-15 11:28N 01°17' E 103°45'0 0.0
2017-Nov-15 10:55N 01°17' E 103°45'0 0.0
2017-Nov-15 10:28N 01°17' E 103°45'0 0.0
2017-Nov-15 09:57N 01°17' E 103°45'0 0.0
2017-Nov-15 09:30N 01°17' E 103°45'0 0.0
2017-Nov-15 08:56N 01°17' E 103°45'0 0.0
2017-Nov-15 08:28N 01°17' E 103°45'0 0.0
2017-Nov-15 07:56N 01°17' E 103°45'0 0.2
2017-Nov-15 07:30N 01°17' E 103°45'2 3.4
2017-Nov-15 07:00N 01°15' E 103°46'713.1
2017-Nov-15 06:30N 01°12' E 103°40'5 9.1
2017-Nov-15 06:00N 01°12' E 103°35'3 6.6
2017-Nov-15 05:30N 01°11' E 103°32'4 7.7
2017-Nov-15 05:00N 01°11' E 103°28'3 6.6
2017-Nov-15 04:30N 01°12' E 103°25'4 7.0
2017-Nov-15 03:59N 01°14' E 103°22'4 7.2
2017-Nov-15 03:27N 01°16' E 103°19'  

Dump ship's entire track history